Terminal Aerodrome Forecast
Issued by NWS Sterling, VA

Current Version | Previous Version | Graphics & Text | Print | Product List | Glossary On
Versions: 1 2 3 4 5 6 7 8 9 10 11 12 13 14 15 16 17 18 19 20 21 22 23 24 25 26 27 28 29 30
828
FTUS41 KLWX 241625 AAA
TAFIAD
TAF AMD
KIAD 241625Z 2416/2518 31011KT P6SM FEW040 SCT130 SCT250
     FM242200 28007KT P6SM VCTS BKN040CB
     FM250000 28006KT P6SM SCT060 SCT250
     FM251000 34005KT P6SM FEW250
     FM251500 33009KT P6SM SCT050=

USA.gov is the U.S. government's official web portal to all federal, state and local government web resources and services.